Time;durP1;ratioP1;P1;durP2;ratioP2;P2;SDS_P1;SDS_P2;PMS_P1;PMS_P2;Temp;Humidity;BMP_temperature;BMP_pressure;BME280_temperature;BME280_humidity;BME280_pressure;Samples;Min_cycle;Max_cycle;Signal;HPM_P1;HPM_P2
2023/03/22 00:01:09;;;;;;;67.55;63.28;;;;;;;8.41;85.60;98041.88;5092204;28;20024;-73
2023/03/22 00:03:34;;;;;;;67.25;62.80;;;;;;;8.25;86.15;98040.69;5073918;28;20032;-73
2023/03/22 00:06:00;;;;;;;68.38;64.07;;;;;;;8.22;86.55;98041.97;5057095;28;20032;-73
2023/03/22 00:08:25;;;;;;;68.82;64.72;;;;;;;8.31;85.54;98050.50;5057401;28;20036;-73
2023/03/22 00:10:51;;;;;;;70.03;65.60;;;;;;;8.19;85.52;98050.47;5073848;28;20051;-73
2023/03/22 00:13:16;;;;;;;71.18;66.35;;;;;;;7.89;87.16;98040.91;5091709;28;20513;-73
2023/03/22 00:15:43;;;;;;;72.72;67.70;;;;;;;7.96;86.89;98046.97;5057107;28;20034;-73
2023/03/22 00:18:11;;;;;;;74.28;69.57;;;;;;;7.77;87.41;98032.81;5053758;28;20040;-73
2023/03/22 00:20:38;;;;;;;70.65;65.93;;;;;;;7.98;86.26;98028.78;5070417;28;20025;-73
2023/03/22 00:23:03;;;;;;;71.43;66.63;;;;;;;7.91;86.62;98036.91;5053016;28;20046;-73
2023/03/22 00:25:29;;;;;;;67.65;63.65;;;;;;;7.82;86.81;98034.81;5040119;28;20028;-73
2023/03/22 00:27:55;;;;;;;73.35;68.72;;;;;;;7.80;87.08;98039.56;5073750;28;20036;-75
2023/03/22 00:30:20;;;;;;;72.95;68.30;;;;;;;7.70;87.07;98042.84;5073604;28;20035;-75
2023/03/22 00:32:45;;;;;;;67.43;63.42;;;;;;;7.91;85.70;98031.56;5056873;28;20434;-74
2023/03/22 00:35:12;;;;;;;69.45;65.03;;;;;;;8.04;86.23;98031.34;5056802;28;20030;-73
2023/03/22 00:37:37;;;;;;;72.18;67.50;;;;;;;7.75;85.54;98034.91;5073451;28;20111;-73
2023/03/22 00:40:07;;;;;;;67.93;63.88;;;;;;;7.80;85.86;98031.53;5056684;28;20054;-74
2023/03/22 00:42:37;;;;;;;72.45;67.80;;;;;;;7.82;86.21;98030.25;5057532;28;20028;-73
2023/03/22 00:45:04;;;;;;;71.07;66.88;;;;;;;7.87;85.94;98027.72;5056410;28;20402;-73
2023/03/22 00:47:29;;;;;;;69.97;65.78;;;;;;;7.68;87.00;98028.84;5036742;28;20031;-74
2023/03/22 00:49:55;;;;;;;71.78;67.30;;;;;;;7.84;85.56;98025.47;5071467;28;20036;-74
2023/03/22 00:52:21;;;;;;;69.97;65.82;;;;;;;7.75;85.44;98028.75;5073437;28;20024;-74
2023/03/22 00:54:46;;;;;;;71.82;67.53;;;;;;;7.64;86.10;98016.94;5058725;28;20570;-74
2023/03/22 00:57:13;;;;;;;67.72;63.72;;;;;;;7.71;85.52;98023.03;5077798;28;20038;-73
2023/03/22 00:59:41;;;;;;;68.00;63.78;;;;;;;7.81;85.12;98028.66;5077634;28;20028;-74
2023/03/22 01:02:07;;;;;;;62.90;59.20;;;;;;;7.97;84.95;98011.88;5060931;28;20024;-74
2023/03/22 01:04:34;;;;;;;69.75;65.55;;;;;;;7.79;85.52;98003.94;5095285;28;20044;-73
2023/03/22 01:07:02;;;;;;;66.53;62.72;;;;;;;7.89;84.88;98012.19;5062117;28;20028;-75
2023/03/22 01:09:29;;;;;;;69.10;64.70;;;;;;;7.90;84.03;98011.16;5077832;28;20374;-73
2023/03/22 01:12:00;;;;;;;68.88;64.63;;;;;;;7.89;85.46;98003.38;5060742;28;20771;-75
2023/03/22 01:14:27;;;;;;;72.22;67.53;;;;;;;7.77;85.49;97997.97;5064675;28;20122;-78
2023/03/22 01:16:56;;;;;;;67.65;63.60;;;;;;;8.00;85.12;98002.56;5064758;28;20020;-75
2023/03/22 01:19:23;;;;;;;66.78;62.78;;;;;;;7.93;84.62;97997.31;5068184;28;20134;-77
2023/03/22 01:21:49;;;;;;;68.88;64.68;;;;;;;7.82;85.26;97981.22;5089194;28;20024;-77
2023/03/22 01:24:15;;;;;;;69.13;64.93;;;;;;;7.79;85.69;97985.19;5070691;28;20058;-77
2023/03/22 01:26:41;;;;;;;64.90;61.00;;;;;;;7.78;86.12;97986.22;5053158;28;20055;-77
2023/03/22 01:29:07;;;;;;;68.35;64.03;;;;;;;7.82;85.67;97976.66;5070209;28;20409;-78
2023/03/22 01:31:32;;;;;;;66.50;62.45;;;;;;;7.66;85.57;97980.00;5086839;28;20020;-78
2023/03/22 01:33:57;;;;;;;67.80;63.50;;;;;;;7.71;85.27;97974.78;5086500;28;20038;-78
2023/03/22 01:36:23;;;;;;;65.00;61.08;;;;;;;7.47;86.05;97981.13;5085736;28;20032;-78
2023/03/22 01:38:48;;;;;;;68.35;64.03;;;;;;;7.56;85.46;97975.22;5068859;28;20032;-78
2023/03/22 01:41:15;;;;;;;67.82;63.97;;;;;;;7.72;86.23;97981.78;5066519;28;20020;-77
2023/03/22 01:43:41;;;;;;;68.28;64.30;;;;;;;7.76;85.69;97980.25;5066496;28;20093;-77
2023/03/22 01:46:08;;;;;;;71.20;66.80;;;;;;;7.71;85.27;97969.41;5066731;28;20058;-77
2023/03/22 01:48:40;;;;;;;70.22;65.82;;;;;;;7.74;86.25;97974.31;5083413;28;20036;-77
2023/03/22 01:51:13;;;;;;;67.75;63.83;;;;;;;7.85;85.35;97981.56;5066141;28;20043;-76
2023/03/22 01:54:07;;;;;;;69.50;65.20;;;;;;;7.56;84.04;97971.75;5073421;28;20062;-77
2023/03/22 01:56:39;;;;;;;66.53;62.58;;;;;;;7.57;84.72;97974.19;5063835;28;20116;-77
2023/03/22 01:59:07;;;;;;;66.53;62.42;;;;;;;7.61;84.99;97974.53;5064520;28;20031;-77
2023/03/22 02:01:49;;;;;;;68.63;64.63;;;;;;;7.57;85.52;97960.78;5066715;28;20028;-77
2023/03/22 02:04:18;;;;;;;69.53;65.22;;;;;;;7.62;84.51;97966.28;5063315;28;20417;-76
2023/03/22 02:06:45;;;;;;;66.32;62.33;;;;;;;7.71;84.86;97963.22;5058549;28;20028;-77
2023/03/22 02:09:20;;;;;;;68.72;64.70;;;;;;;7.74;85.87;97968.97;5044339;28;20451;-76
2023/03/22 02:12:02;;;;;;;68.25;64.20;;;;;;;7.32;85.81;97970.06;5060694;28;20520;-76
2023/03/22 02:15:02;;;;;;;69.72;65.60;;;;;;;7.40;85.42;97972.38;5043747;28;20039;-76
2023/03/22 02:18:05;;;;;;;65.60;61.80;;;;;;;7.59;85.41;97964.03;5078685;28;20451;-77
2023/03/22 02:20:47;;;;;;;65.68;61.70;;;;;;;7.53;84.34;97951.59;5059742;28;20040;-76
2023/03/22 02:23:49;;;;;;;68.75;64.63;;;;;;;7.24;86.29;97962.31;5037113;28;20047;-77
2023/03/22 02:26:52;;;;;;;71.25;67.05;;;;;;;7.31;85.68;97950.47;5081876;28;20521;-77
2023/03/22 02:29:28;;;;;;;73.65;69.35;;;;;;;7.32;85.68;97953.97;5079286;28;20409;-77
2023/03/22 02:32:30;;;;;;;68.82;64.50;;;;;;;7.21;85.38;97952.09;5043711;28;20119;-76
2023/03/22 02:35:27;;;;;;;68.57;64.53;;;;;;;7.20;86.17;97950.44;5048140;28;20037;-77
2023/03/22 02:38:29;;;;;;;68.82;64.72;;;;;;;7.37;84.81;97946.06;5055915;28;20406;-76
2023/03/22 02:41:11;;;;;;;62.55;58.75;;;;;;;7.40;85.92;97951.78;5042579;28;20032;-75
2023/03/22 02:43:45;;;;;;;64.22;60.42;;;;;;;7.48;85.52;97937.22;5057179;28;20032;-75
2023/03/22 02:46:29;;;;;;;67.88;63.65;;;;;;;7.16;85.27;97944.75;5058782;28;20444;-75
2023/03/22 02:49:07;;;;;;;66.32;62.22;;;;;;;7.40;84.55;97946.41;5076092;28;20497;-75
2023/03/22 02:51:47;;;;;;;67.55;63.40;;;;;;;7.41;86.33;97931.16;5075614;28;20028;-76
2023/03/22 02:54:19;;;;;;;66.85;62.78;;;;;;;7.51;86.58;97926.06;5075504;28;20067;-76
2023/03/22 02:57:37;;;;;;;65.80;61.90;;;;;;;7.65;85.12;97939.00;5075176;28;20034;-76
2023/03/22 03:00:09;;;;;;;68.05;63.95;;;;;;;7.46;86.06;97933.97;5046732;28;20050;-76
2023/03/22 03:02:35;;;;;;;69.75;65.50;;;;;;;7.60;86.45;97936.22;5059307;28;20039;-76
2023/03/22 03:05:01;;;;;;;71.40;67.07;;;;;;;7.81;86.11;97936.69;5041963;28;20102;-77
2023/03/22 03:07:29;;;;;;;69.50;65.20;;;;;;;7.64;85.47;97934.69;5075153;28;20032;-76
2023/03/22 03:09:55;;;;;;;72.65;68.32;;;;;;;7.35;86.01;97937.47;5058397;28;20439;-76
2023/03/22 03:12:23;;;;;;;68.38;64.10;;;;;;;7.64;86.05;97937.38;5058351;28;20028;-77
2023/03/22 03:14:50;;;;;;;68.45;64.55;;;;;;;7.73;85.66;97929.78;5058300;28;20020;-77
2023/03/22 03:17:25;;;;;;;69.47;65.35;;;;;;;7.83;85.34;97938.09;5047318;28;20069;-76
2023/03/22 03:20:11;;;;;;;64.88;61.17;;;;;;;7.96;85.66;97942.41;5041932;28;20064;-77
2023/03/22 03:22:51;;;;;;;67.95;64.00;;;;;;;7.78;85.50;97937.97;5070876;28;20036;-77
2023/03/22 03:25:24;;;;;;;63.72;59.92;;;;;;;7.97;85.90;97930.59;5074630;28;20062;-76
2023/03/22 03:27:58;;;;;;;64.20;60.40;;;;;;;8.06;84.48;97940.75;5074667;28;20028;-77
2023/03/22 03:30:30;;;;;;;65.18;61.30;;;;;;;7.87;85.64;97935.72;5058115;28;20031;-77
2023/03/22 03:32:59;;;;;;;63.78;60.00;;;;;;;7.57;85.55;97941.19;5057991;28;20036;-74
2023/03/22 03:35:37;;;;;;;67.47;63.47;;;;;;;7.28;86.39;97942.88;5059930;28;20059;-74
2023/03/22 03:38:12;;;;;;;65.05;61.22;;;;;;;7.58;85.99;97942.84;5074690;28;20036;-75
2023/03/22 03:40:44;;;;;;;67.43;63.33;;;;;;;7.80;85.60;97946.56;5058292;28;20470;-74
2023/03/22 03:43:10;;;;;;;75.05;69.78;;;;;;;7.66;85.62;97950.53;5058500;28;20315;-75
2023/03/22 03:45:36;;;;;;;83.13;76.38;;;;;;;7.73;85.32;97945.88;5042280;28;20028;-74
2023/03/22 03:48:05;;;;;;;86.55;79.70;;;;;;;7.65;85.59;97949.72;5059924;28;20032;-74
2023/03/22 03:50:30;;;;;;;77.53;72.30;;;;;;;7.67;85.00;97938.78;5040784;28;20367;-75
2023/03/22 03:52:56;;;;;;;65.85;61.50;;;;;;;7.66;84.21;97950.53;5057387;28;20043;-75
2023/03/22 03:55:23;;;;;;;72.60;67.20;;;;;;;7.74;84.58;97950.19;5054311;28;20031;-77
2023/03/22 03:57:48;;;;;;;69.53;64.57;;;;;;;7.70;85.32;97941.00;5058319;28;20028;-78
2023/03/22 04:00:14;;;;;;;71.30;66.65;;;;;;;7.79;85.37;97934.25;5043731;28;20027;-76
2023/03/22 04:02:50;;;;;;;62.80;58.92;;;;;;;7.75;85.42;97942.97;5073754;28;20064;-77
2023/03/22 04:05:36;;;;;;;63.47;59.42;;;;;;;7.70;84.47;97951.72;5074186;28;20032;-74
2023/03/22 04:08:01;;;;;;;64.45;60.40;;;;;;;7.50;84.69;97945.84;5092561;28;20050;-75
2023/03/22 04:10:27;;;;;;;63.30;59.45;;;;;;;7.46;84.79;97948.19;5057229;28;20391;-74
2023/03/22 04:12:52;;;;;;;64.25;60.40;;;;;;;7.49;84.15;97950.38;5057136;28;20024;-74
2023/03/22 04:15:19;;;;;;;65.13;61.13;;;;;;;7.20;85.25;97945.09;5074288;28;20024;-74
2023/03/22 04:17:49;;;;;;;63.95;59.92;;;;;;;7.21;85.19;97952.09;5056990;28;20036;-74
2023/03/22 04:20:16;;;;;;;62.83;58.92;;;;;;;7.32;85.89;97953.97;5057379;28;20050;-74
2023/03/22 04:22:42;;;;;;;62.90;58.83;;;;;;;7.30;85.38;97946.19;5053760;28;20122;-76
2023/03/22 04:25:10;;;;;;;61.55;57.58;;;;;;;7.10;86.35;97947.50;5036934;28;20524;-76
2023/03/22 04:27:40;;;;;;;61.35;57.60;;;;;;;7.24;85.28;97941.72;5037841;28;20020;-76
2023/03/22 04:30:21;;;;;;;61.63;57.85;;;;;;;7.34;85.18;97927.78;5037538;28;20039;-77
2023/03/22 04:33:21;;;;;;;59.20;55.47;;;;;;;7.30;86.07;97935.47;5059675;28;20047;-76
2023/03/22 04:36:09;;;;;;;60.60;56.85;;;;;;;7.25;85.11;97934.50;5070744;28;20513;-76
2023/03/22 04:38:42;;;;;;;63.45;59.28;;;;;;;7.28;85.57;97942.88;5056960;28;20029;-76
2023/03/22 04:41:14;;;;;;;64.05;59.97;;;;;;;6.98;86.11;97936.75;5058099;28;20193;-75
2023/03/22 04:43:45;;;;;;;61.10;57.40;;;;;;;7.11;86.42;97941.13;5057547;28;20497;-75
2023/03/22 04:46:13;;;;;;;63.60;59.80;;;;;;;7.38;85.75;97943.16;5058592;28;20028;-76
2023/03/22 04:48:45;;;;;;;61.90;58.10;;;;;;;7.37;86.03;97940.72;5058052;28;20058;-75
2023/03/22 04:51:10;;;;;;;60.08;56.38;;;;;;;7.46;85.90;97940.16;5057243;28;20036;-74
2023/03/22 04:53:43;;;;;;;65.63;61.47;;;;;;;7.50;86.39;97935.13;5075126;28;20035;-76
2023/03/22 04:56:11;;;;;;;60.05;56.25;;;;;;;7.65;86.29;97932.84;5060103;28;20024;-77
2023/03/22 04:58:41;;;;;;;61.25;57.33;;;;;;;7.58;86.19;97916.84;5040880;28;20044;-77
2023/03/22 05:01:11;;;;;;;60.70;56.83;;;;;;;7.62;85.84;97919.88;5037535;28;20073;-78
2023/03/22 05:03:40;;;;;;;64.05;60.10;;;;;;;7.66;86.13;97913.00;5050823;28;20127;-77
2023/03/22 05:06:07;;;;;;;61.83;57.70;;;;;;;7.71;85.68;97923.03;5065654;28;20024;-77
2023/03/22 05:08:42;;;;;;;60.95;56.95;;;;;;;7.80;86.03;97925.13;5050012;28;20028;-76
2023/03/22 05:11:12;;;;;;;62.28;58.25;;;;;;;7.86;84.48;97918.03;5058130;28;20024;-76
2023/03/22 05:13:37;;;;;;;62.97;58.83;;;;;;;7.84;85.91;97909.41;5071722;28;20016;-75
2023/03/22 05:16:04;;;;;;;63.65;59.55;;;;;;;7.87;85.16;97909.75;5056130;28;20032;-76
2023/03/22 05:18:44;;;;;;;61.90;58.00;;;;;;;7.97;84.40;97914.53;5070051;28;20028;-75
2023/03/22 05:21:14;;;;;;;62.70;58.60;;;;;;;7.96;84.71;97908.34;5040617;28;20024;-75
2023/03/22 05:23:42;;;;;;;61.75;57.90;;;;;;;7.98;85.31;97911.59;5070251;28;20647;-76
2023/03/22 05:26:14;;;;;;;69.90;65.03;;;;;;;7.97;86.31;97919.88;5041275;28;20020;-76
2023/03/22 05:28:42;;;;;;;67.03;62.42;;;;;;;8.01;85.16;97921.03;5057060;28;20042;-76
2023/03/22 05:31:13;;;;;;;68.43;63.92;;;;;;;8.00;85.33;97914.88;5058065;28;20035;-76
2023/03/22 05:33:51;;;;;;;65.03;60.65;;;;;;;7.81;85.69;97899.97;5044446;28;20036;-75
2023/03/22 05:36:20;;;;;;;95.78;88.47;;;;;;;8.00;85.29;97914.88;5056809;28;20039;-75
2023/03/22 05:39:17;;;;;;;72.28;67.10;;;;;;;7.87;86.13;97904.38;5051313;28;20027;-75
2023/03/22 05:41:44;;;;;;;112.15;103.65;;;;;;;7.84;86.20;97899.47;5062735;28;20485;-75
2023/03/22 05:44:10;;;;;;;65.57;61.20;;;;;;;7.94;85.74;97910.44;5061633;28;20023;-75
2023/03/22 05:46:39;;;;;;;65.22;61.03;;;;;;;7.99;85.43;97905.19;5061317;28;20401;-77
2023/03/22 05:49:34;;;;;;;64.57;60.40;;;;;;;8.11;84.72;97906.00;5064128;28;20068;-74
2023/03/22 05:52:03;;;;;;;63.80;59.70;;;;;;;8.00;85.66;97897.97;5077133;28;20036;-74
2023/03/22 05:54:36;;;;;;;;;;;;;;;7.99;85.98;97902.53;5046416;28;20389;-73
2023/03/22 05:57:01;;;;;;;64.83;60.57;;;;;;;8.00;85.83;97901.47;5076699;28;19916;-74
2023/03/22 05:59:27;;;;;;;62.90;58.85;;;;;;;8.06;85.54;97903.22;5043278;28;20044;-75
2023/03/22 06:01:53;;;;;;;62.33;58.22;;;;;;;8.01;85.49;97895.03;5043192;28;20032;-75
2023/03/22 06:04:21;;;;;;;65.32;61.00;;;;;;;8.10;84.96;97903.53;5060016;28;20085;-76
2023/03/22 06:06:54;;;;;;;63.30;59.00;;;;;;;8.11;84.78;97895.28;5060583;28;20081;-75
2023/03/22 06:09:31;;;;;;;70.43;66.00;;;;;;;8.18;85.68;97916.59;5061341;28;20058;-75
2023/03/22 06:11:57;;;;;;;70.53;65.93;;;;;;;8.07;84.79;97910.22;5059926;28;20032;-75
2023/03/22 06:14:23;;;;;;;68.28;63.83;;;;;;;8.18;84.61;97917.41;5042968;28;20389;-75
2023/03/22 06:17:07;;;;;;;79.68;73.38;;;;;;;8.17;84.54;97910.41;5061928;28;20168;-75
2023/03/22 06:19:33;;;;;;;71.07;65.50;;;;;;;8.24;83.72;97910.28;5059374;28;20028;-76
2023/03/22 06:22:01;;;;;;;64.03;59.95;;;;;;;8.32;83.80;97908.09;5059910;28;20055;-76
2023/03/22 06:24:27;;;;;;;61.97;57.97;;;;;;;8.48;83.68;97911.91;5059138;28;20456;-75
2023/03/22 06:26:52;;;;;;;62.15;58.15;;;;;;;8.39;84.32;97913.31;5075755;28;20077;-75
2023/03/22 06:29:18;;;;;;;59.67;55.67;;;;;;;8.47;83.85;97901.41;5059295;28;20331;-75
2023/03/22 06:31:43;;;;;;;61.03;57.03;;;;;;;8.57;83.89;97915.00;5075919;28;20020;-75
2023/03/22 06:34:09;;;;;;;58.17;54.40;;;;;;;8.55;83.38;97914.44;5058957;28;20032;-75
2023/03/22 06:36:37;;;;;;;59.33;55.63;;;;;;;8.70;82.52;97920.13;5075665;28;20097;-76
2023/03/22 06:39:10;;;;;;;60.63;56.33;;;;;;;8.77;83.14;97910.88;5044407;28;20028;-75
2023/03/22 06:41:35;;;;;;;58.80;55.20;;;;;;;8.81;83.16;97909.34;5042609;28;20039;-76
2023/03/22 06:44:01;;;;;;;60.30;56.63;;;;;;;8.80;82.92;97910.38;5093664;28;20101;-76
2023/03/22 06:46:41;;;;;;;60.65;56.97;;;;;;;8.82;82.48;97913.63;5046204;28;20043;-75
2023/03/22 06:49:20;;;;;;;58.30;54.60;;;;;;;8.80;82.95;97909.56;5045935;28;20039;-75
2023/03/22 06:51:48;;;;;;;57.85;54.05;;;;;;;9.07;82.67;97915.16;5042895;28;20405;-77
2023/03/22 06:54:15;;;;;;;58.80;55.30;;;;;;;9.00;82.82;97910.78;5058838;28;20024;-75
2023/03/22 06:56:40;;;;;;;58.40;54.80;;;;;;;9.08;83.00;97901.47;5075364;28;20028;-75
2023/03/22 06:59:06;;;;;;;56.90;53.30;;;;;;;9.13;81.95;97909.63;5058845;28;20020;-75
2023/03/22 07:01:31;;;;;;;58.17;54.92;;;;;;;9.14;82.01;97907.75;5075535;28;20027;-75
2023/03/22 07:03:57;;;;;;;56.63;53.10;;;;;;;9.28;83.03;97912.59;5075130;28;20473;-75
2023/03/22 07:06:23;;;;;;;56.70;53.13;;;;;;;9.30;81.56;97917.72;5075558;28;20409;-76
2023/03/22 07:08:49;;;;;;;53.90;50.75;;;;;;;9.45;82.27;97905.34;5058707;28;20027;-76
2023/03/22 07:11:19;;;;;;;54.03;50.67;;;;;;;9.54;81.75;97906.59;5059726;28;20035;-76
2023/03/22 07:13:49;;;;;;;53.38;50.20;;;;;;;9.63;81.69;97915.03;5058844;28;20031;-76
2023/03/22 07:16:19;;;;;;;53.45;50.10;;;;;;;9.75;81.17;97918.47;5058895;28;20493;-76
2023/03/22 07:18:49;;;;;;;53.42;50.33;;;;;;;9.82;81.08;97913.75;5059086;28;20509;-75
2023/03/22 07:21:15;;;;;;;50.85;47.78;;;;;;;9.89;80.43;97918.94;5074916;28;20032;-76
2023/03/22 07:23:42;;;;;;;50.05;46.95;;;;;;;9.99;80.03;97919.88;5057588;28;20485;-76
2023/03/22 07:26:12;;;;;;;46.75;43.92;;;;;;;9.90;80.01;97925.94;5058618;28;20043;-76
2023/03/22 07:28:43;;;;;;;48.03;45.08;;;;;;;10.00;79.74;97926.09;5058653;28;20040;-76
2023/03/22 07:31:11;;;;;;;45.63;43.03;;;;;;;10.05;79.45;97918.09;5058833;28;20032;-76
2023/03/22 07:34:06;;;;;;;46.07;43.07;;;;;;;10.21;79.10;97931.56;5065727;28;20477;-76
2023/03/22 07:36:40;;;;;;;38.17;35.78;;;;;;;10.22;78.26;97929.69;5059113;28;20728;-76
2023/03/22 07:39:08;;;;;;;39.55;37.25;;;;;;;10.20;78.59;97929.09;5074514;28;20039;-76
2023/03/22 07:41:39;;;;;;;31.48;29.48;;;;;;;10.35;77.07;97926.63;5042734;28;20026;-76
2023/03/22 07:44:22;;;;;;;29.58;27.58;;;;;;;10.53;76.72;97926.31;5065411;28;20048;-76
2023/03/22 07:47:07;;;;;;;30.55;28.42;;;;;;;10.57;76.26;97924.72;5060361;28;20059;-76
2023/03/22 07:49:44;;;;;;;28.63;26.52;;;;;;;10.53;77.13;97931.69;5074339;28;20508;-74
2023/03/22 07:52:16;;;;;;;30.33;28.25;;;;;;;10.67;76.28;97930.25;5058588;28;20374;-76
2023/03/22 07:54:42;;;;;;;30.00;27.75;;;;;;;10.63;76.59;97937.22;5057456;28;20036;-77
2023/03/22 07:57:08;;;;;;;31.48;29.48;;;;;;;10.55;77.33;97931.47;5057533;28;20115;-76
2023/03/22 07:59:38;;;;;;;32.33;30.10;;;;;;;10.59;77.50;97940.66;5042308;28;20032;-76
2023/03/22 08:02:03;;;;;;;30.08;27.77;;;;;;;10.38;76.95;97931.50;5073399;28;20085;-76
2023/03/22 08:04:35;;;;;;;30.55;28.38;;;;;;;10.44;76.94;97935.88;5091348;28;20047;-76
2023/03/22 08:07:08;;;;;;;30.55;28.38;;;;;;;10.51;77.04;97930.31;5059064;28;20031;-76
2023/03/22 08:09:35;;;;;;;29.15;27.02;;;;;;;10.56;77.38;97935.75;5042423;28;20148;-74
2023/03/22 08:12:00;;;;;;;33.33;31.25;;;;;;;10.65;77.08;97934.25;5041045;28;20450;-74
2023/03/22 08:14:26;;;;;;;30.63;28.33;;;;;;;10.83;76.54;97932.03;5074153;28;20059;-76
2023/03/22 08:16:51;;;;;;;32.47;30.05;;;;;;;10.85;76.80;97932.59;5054035;28;20082;-73
2023/03/22 08:19:17;;;;;;;31.30;29.40;;;;;;;10.77;76.57;97916.09;5069836;28;20422;-76
2023/03/22 08:21:42;;;;;;;27.05;25.33;;;;;;;10.96;76.73;97926.28;5056905;28;20020;-74
2023/03/22 08:24:20;;;;;;;28.65;26.75;;;;;;;11.01;75.67;97929.03;5069127;28;20287;-74
2023/03/22 08:26:55;;;;;;;26.10;23.87;;;;;;;10.82;75.73;97938.50;5065011;28;20024;-76
2023/03/22 08:29:28;;;;;;;23.20;21.45;;;;;;;10.82;75.66;97938.50;5050565;28;20111;-76
2023/03/22 08:31:55;;;;;;;24.13;22.33;;;;;;;11.03;74.91;97920.69;5057318;28;20031;-76
2023/03/22 08:34:20;;;;;;;24.02;22.23;;;;;;;11.36;74.95;97927.75;5073559;28;20450;-76
2023/03/22 08:36:46;;;;;;;22.15;20.65;;;;;;;11.29;73.93;97930.66;5057152;28;20032;-76
2023/03/22 08:39:11;;;;;;;24.08;22.17;;;;;;;11.33;74.58;97925.56;5057048;28;20074;-76
2023/03/22 08:41:45;;;;;;;24.38;22.58;;;;;;;11.44;74.86;97932.66;5042770;28;20039;-76
2023/03/22 08:44:10;;;;;;;25.85;23.98;;;;;;;11.28;75.17;97933.59;5056963;28;20027;-74
2023/03/22 08:46:36;;;;;;;25.83;24.20;;;;;;;11.57;74.66;97921.47;5056726;28;20101;-75
2023/03/22 08:49:02;;;;;;;24.65;22.70;;;;;;;11.68;73.01;97920.50;5040457;28;20039;-76
2023/03/22 08:51:33;;;;;;;22.58;20.92;;;;;;;12.01;73.48;97927.47;5042181;28;20024;-76
2023/03/22 08:54:09;;;;;;;17.92;16.50;;;;;;;11.95;72.54;97929.31;5058454;28;20047;-76
2023/03/22 08:56:57;;;;;;;16.50;15.23;;;;;;;12.05;72.46;97932.09;5012245;28;20153;-76
2023/03/22 08:59:34;;;;;;;18.73;17.27;;;;;;;12.29;73.15;97921.72;5059728;28;20046;-76
2023/03/22 09:02:29;;;;;;;12.77;11.68;;;;;;;11.96;71.52;97930.97;5047977;28;20589;-76
2023/03/22 09:04:55;;;;;;;14.80;13.60;;;;;;;12.07;72.91;97921.84;5056267;28;20024;-76
2023/03/22 09:07:21;;;;;;;13.38;12.38;;;;;;;11.96;72.47;97909.38;5059493;28;20043;-77
2023/03/22 09:09:55;;;;;;;12.80;11.70;;;;;;;12.52;69.67;97923.19;5071519;28;20028;-76
2023/03/22 09:12:22;;;;;;;12.27;11.02;;;;;;;12.33;70.98;97915.53;5073352;28;20040;-76
2023/03/22 09:14:48;;;;;;;11.63;10.40;;;;;;;12.44;70.49;97916.38;5057017;28;20385;-76
2023/03/22 09:17:17;;;;;;;12.60;11.10;;;;;;;12.35;71.07;97918.78;5057305;28;20113;-77
2023/03/22 09:19:43;;;;;;;11.30;10.20;;;;;;;12.27;71.17;97919.28;5077155;28;20477;-77
2023/03/22 09:22:08;;;;;;;11.10;10.00;;;;;;;12.17;70.83;97921.09;5060363;28;20109;-76
2023/03/22 09:24:43;;;;;;;13.13;12.02;;;;;;;12.78;70.80;97908.69;5076799;28;20016;-76
2023/03/22 09:27:09;;;;;;;10.40;9.13;;;;;;;12.68;68.96;97905.94;5076942;28;20375;-76
2023/03/22 09:29:34;;;;;;;11.10;7.70;;;;;;;12.88;68.50;97906.03;5059501;28;20106;-76
2023/03/22 09:32:03;;;;;;;8.65;7.85;;;;;;;13.11;66.91;97898.28;5043231;28;20032;-76
2023/03/22 09:34:33;;;;;;;8.00;7.20;;;;;;;13.14;67.14;97894.22;5060480;28;20024;-75
2023/03/22 09:37:01;;;;;;;10.55;8.05;;;;;;;13.35;67.16;97890.44;5076795;28;20039;-76
2023/03/22 09:39:29;;;;;;;9.50;7.50;;;;;;;13.43;65.63;97889.94;5060601;28;20028;-76
2023/03/22 09:42:03;;;;;;;11.45;8.48;;;;;;;12.89;66.31;97881.44;5060349;28;20081;-76
2023/03/22 09:44:32;;;;;;;14.93;11.13;;;;;;;13.17;66.54;97872.06;5076625;28;20398;-76
2023/03/22 09:46:59;;;;;;;9.27;5.75;;;;;;;13.17;66.09;97872.06;5060082;28;20027;-76
2023/03/22 09:49:38;;;;;;;6.63;4.88;;;;;;;13.37;65.66;97866.66;5060058;28;20412;-77
2023/03/22 09:52:11;;;;;;;6.07;3.83;;;;;;;13.19;64.24;97867.19;5076717;28;20538;-76
2023/03/22 09:54:38;;;;;;;6.35;3.88;;;;;;;13.31;66.38;97878.56;5059816;28;20478;-76
2023/03/22 09:57:13;;;;;;;5.80;2.42;;;;;;;12.76;61.99;97868.44;5076455;28;20028;-76
2023/03/22 10:00:13;;;;;;;4.68;2.03;;;;;;;13.30;62.50;97868.84;5076583;28;20028;-76
2023/03/22 10:02:45;;;;;;;3.67;2.35;;;;;;;13.49;60.67;97864.50;5076360;28;20233;-76
2023/03/22 10:05:29;;;;;;;4.28;2.22;;;;;;;13.31;60.14;97867.75;5076008;28;20097;-77
2023/03/22 10:08:07;;;;;;;4.25;1.83;;;;;;;12.91;59.75;97864.94;5076416;28;20032;-76
2023/03/22 10:10:33;;;;;;;5.20;2.10;;;;;;;12.71;60.31;97860.31;5059821;28;20126;-76
2023/03/22 10:13:15;;;;;;;4.53;1.83;;;;;;;12.77;60.36;97872.75;5059522;28;20020;-77
2023/03/22 10:15:51;;;;;;;4.38;2.40;;;;;;;13.05;58.92;97868.75;5094330;28;20042;-76
2023/03/22 10:18:31;;;;;;;6.13;2.70;;;;;;;12.99;57.95;97867.94;5063668;28;20512;-76
2023/03/22 10:21:00;;;;;;;3.22;2.00;;;;;;;13.30;59.08;97860.72;5076313;28;20123;-76
2023/03/22 10:23:38;;;;;;;3.42;1.70;;;;;;;13.49;58.41;97859.06;5059112;28;20046;-76
2023/03/22 10:26:04;;;;;;;3.50;2.22;;;;;;;13.25;58.87;97844.50;5058920;28;20035;-76
2023/03/22 10:28:36;;;;;;;3.35;1.80;;;;;;;13.16;56.95;97859.63;5075791;28;20058;-77
2023/03/22 10:31:01;;;;;;;3.38;1.67;;;;;;;13.44;58.90;97840.13;5059527;28;20032;-76
2023/03/22 10:33:36;;;;;;;2.72;1.50;;;;;;;13.36;58.98;97848.00;5058989;28;20111;-77
2023/03/22 10:36:03;;;;;;;6.00;2.03;;;;;;;13.40;57.90;97833.66;5059038;28;20036;-76
2023/03/22 10:38:29;;;;;;;4.53;1.60;;;;;;;13.50;58.36;97833.66;5059356;28;20032;-76
2023/03/22 10:40:56;;;;;;;3.47;1.60;;;;;;;13.88;57.54;97830.34;5073618;28;20114;-75
2023/03/22 10:43:27;;;;;;;3.88;1.60;;;;;;;13.88;56.92;97828.72;5085275;28;20476;-77
2023/03/22 10:45:53;;;;;;;2.88;1.75;;;;;;;13.94;56.30;97833.03;5042076;28;20040;-77
2023/03/22 10:48:28;;;;;;;2.05;1.40;;;;;;;13.72;56.35;97836.88;5074033;28;20016;-78
2023/03/22 10:50:54;;;;;;;3.77;1.80;;;;;;;13.99;57.12;97830.31;5058418;28;20032;-77
2023/03/22 10:53:32;;;;;;;2.50;1.80;;;;;;;14.31;56.25;97830.78;5058800;28;20361;-76
2023/03/22 10:55:57;;;;;;;8.63;4.07;;;;;;;14.59;57.50;97813.84;5057686;28;20028;-77
2023/03/22 10:58:29;;;;;;;3.88;1.85;;;;;;;14.60;55.11;97814.66;5070426;28;20033;-77
2023/03/22 11:01:02;;;;;;;3.85;1.50;;;;;;;14.68;54.54;97812.16;5084939;28;20027;-77
2023/03/22 11:03:34;;;;;;;2.30;1.48;;;;;;;14.84;55.54;97821.84;5075349;28;20040;-77
2023/03/22 11:06:02;;;;;;;2.95;1.65;;;;;;;14.31;54.28;97820.75;5081654;28;20454;-77
2023/03/22 11:08:27;;;;;;;2.92;1.48;;;;;;;14.43;54.97;97812.31;5074062;28;20016;-77
2023/03/22 11:10:57;;;;;;;4.50;1.50;;;;;;;14.57;55.46;97816.03;5059695;28;20043;-76
2023/03/22 11:13:23;;;;;;;3.03;1.88;;;;;;;14.11;56.66;97806.47;5059505;28;20042;-77
2023/03/22 11:15:56;;;;;;;2.83;1.92;;;;;;;14.16;56.19;97792.91;5055719;22;20036;-77
2023/03/22 11:18:32;;;;;;;2.50;1.55;;;;;;;14.50;55.56;97766.75;5055646;28;20501;-77
2023/03/22 11:21:16;;;;;;;3.97;1.88;;;;;;;14.66;54.81;97800.81;5058469;28;20276;-78
2023/03/22 11:23:51;;;;;;;2.88;2.00;;;;;;;14.62;55.55;97805.16;5037970;28;20089;-77
2023/03/22 11:26:28;;;;;;;2.38;1.77;;;;;;;14.58;53.49;97812.25;5054672;28;20043;-77
2023/03/22 11:29:01;;;;;;;5.20;1.80;;;;;;;15.12;53.69;97799.41;5037492;28;20044;-77
2023/03/22 11:31:27;;;;;;;4.30;1.90;;;;;;;15.66;52.59;97807.38;5018384;28;20040;-77
2023/03/22 11:33:57;;;;;;;4.28;1.90;;;;;;;15.79;52.99;97803.19;5017914;28;20028;-77
2023/03/22 11:36:23;;;;;;;3.35;2.30;;;;;;;15.82;54.76;97806.13;5017949;28;20521;-77
2023/03/22 11:39:00;;;;;;;3.70;2.20;;;;;;;15.37;53.14;97800.28;5034594;28;20100;-77
2023/03/22 11:41:28;;;;;;;3.08;2.10;;;;;;;15.60;52.79;97802.28;5018186;28;20036;-77
2023/03/22 11:44:17;;;;;;;4.30;2.45;;;;;;;15.38;53.87;97800.00;5001488;28;20025;-77
2023/03/22 11:46:59;;;;;;;3.10;2.10;;;;;;;14.88;54.00;97806.66;5027909;28;20495;-77